IBE237 CYYB-CYUL
Flight info
| Callsign | IBE237 |
|---|---|
| Flight time | 0h 50m |
| Altitude | 35000 |
| Route | YYB DCT BEMOG LFLER7 |
| Aircraft | A21N/M-SDE2E3FGHIRWXY/LB1 |
Departure
| Time | 2026-05-08 15:06 |
|---|---|
| Airport | North Bay Jack Garland Airport (CYYB) |
Arrival
| Time | 2026-05-08 15:56 |
|---|---|
| Airport | Montreal / Pierre Elliott Trudeau International Airport (CYUL) |
| Time | Latitude | Longitude | Altitude | Speed | Heading |
|---|---|---|---|---|---|
| 2026-05-08 14:32 | 46.36281 | -79.41904 | 1186 ft | 0 kts | 151° |
| 2026-05-08 14:56 | 46.36282 | -79.41904 | 1186 ft | 0 kts | 151° |
| 2026-05-08 14:57 | 46.36291 | -79.41911 | 1186 ft | 3 kts | 144° |
| 2026-05-08 14:57 | 46.36304 | -79.41929 | 1186 ft | 3 kts | 115° |
| 2026-05-08 14:57 | 46.36307 | -79.41949 | 1186 ft | 3 kts | 60° |
| 2026-05-08 14:57 | 46.36294 | -79.41968 | 1186 ft | 3 kts | 32° |
| 2026-05-08 14:58 | 46.36277 | -79.41983 | 1186 ft | 3 kts | 33° |
| 2026-05-08 14:58 | 46.36262 | -79.42000 | 1187 ft | 3 kts | 53° |
| 2026-05-08 14:58 | 46.36258 | -79.42008 | 1187 ft | 1 kts | 65° |
| 2026-05-08 15:01 | 46.36261 | -79.41997 | 1187 ft | 3 kts | 63° |
| 2026-05-08 15:01 | 46.36285 | -79.41968 | 1186 ft | 6 kts | 35° |
| 2026-05-08 15:01 | 46.36324 | -79.41914 | 1186 ft | 10 kts | 62° |
| 2026-05-08 15:02 | 46.36356 | -79.41811 | 1186 ft | 13 kts | 66° |
| 2026-05-08 15:02 | 46.36397 | -79.41677 | 1186 ft | 16 kts | 66° |
| 2026-05-08 15:02 | 46.36452 | -79.41517 | 1186 ft | 19 kts | 62° |
| 2026-05-08 15:02 | 46.36520 | -79.41328 | 1189 ft | 23 kts | 63° |
| 2026-05-08 15:03 | 46.36582 | -79.41105 | 1187 ft | 25 kts | 69° |
| 2026-05-08 15:03 | 46.36659 | -79.40867 | 1182 ft | 27 kts | 65° |
| 2026-05-08 15:03 | 46.36688 | -79.40770 | 1181 ft | 9 kts | 68° |
| 2026-05-08 15:03 | 46.36716 | -79.40671 | 1180 ft | 12 kts | 68° |
| 2026-05-08 15:04 | 46.36761 | -79.40592 | 1177 ft | 10 kts | 5° |
| 2026-05-08 15:04 | 46.36808 | -79.40619 | 1175 ft | 0 kts | 334° |
| 2026-05-08 15:04 | 46.36810 | -79.40620 | 1175 ft | 1 kts | 334° |
| 2026-05-08 15:04 | 46.36828 | -79.40633 | 1173 ft | 5 kts | 334° |
| 2026-05-08 15:05 | 46.36864 | -79.40676 | 1178 ft | 9 kts | 280° |
| 2026-05-08 15:05 | 46.36851 | -79.40749 | 1179 ft | 0 kts | 247° |
| 2026-05-08 15:06 | 46.36849 | -79.40754 | 1179 ft | 10 kts | 247° |
| 2026-05-08 15:06 | 46.36686 | -79.41268 | 1186 ft | 99 kts | 244° |
| 2026-05-08 15:06 | 46.36303 | -79.42464 | 1192 ft | 157 kts | 243° |
| 2026-05-08 15:06 | 46.35809 | -79.43982 | 1840 ft | 168 kts | 244° |
| 2026-05-08 15:07 | 46.35343 | -79.45474 | 2915 ft | 168 kts | 248° |
| 2026-05-08 15:07 | 46.34765 | -79.47064 | 3718 ft | 193 kts | 239° |
| 2026-05-08 15:07 | 46.33808 | -79.48724 | 4515 ft | 233 kts | 226° |
| 2026-05-08 15:07 | 46.32435 | -79.50145 | 5712 ft | 250 kts | 212° |
| 2026-05-08 15:08 | 46.30768 | -79.51035 | 7108 ft | 261 kts | 198° |
| 2026-05-08 15:08 | 46.29565 | -79.51251 | 8065 ft | 268 kts | 187° |
| 2026-05-08 15:08 | 46.27053 | -79.50656 | 9985 ft | 284 kts | 165° |
| 2026-05-08 15:08 | 46.25247 | -79.49223 | 10961 ft | 312 kts | 146° |
| 2026-05-08 15:09 | 46.23738 | -79.46800 | 11784 ft | 339 kts | 124° |
| 2026-05-08 15:09 | 46.22864 | -79.43579 | 12948 ft | 350 kts | 102° |
| 2026-05-08 15:09 | 46.22816 | -79.40080 | 14123 ft | 356 kts | 81° |
| 2026-05-08 15:09 | 46.23596 | -79.36685 | 15217 ft | 359 kts | 59° |
| 2026-05-08 15:10 | 46.25079 | -79.33774 | 16319 ft | 361 kts | 45° |
| 2026-05-08 15:10 | 46.26767 | -79.31047 | 17400 ft | 368 kts | 44° |
| 2026-05-08 15:10 | 46.28465 | -79.28198 | 18448 ft | 375 kts | 46° |
| 2026-05-08 15:10 | 46.30132 | -79.25309 | 19377 ft | 381 kts | 46° |
| 2026-05-08 15:11 | 46.31835 | -79.22339 | 20311 ft | 387 kts | 46° |
| 2026-05-08 15:11 | 46.33550 | -79.19290 | 21235 ft | 393 kts | 46° |
| 2026-05-08 15:11 | 46.35262 | -79.16184 | 22116 ft | 400 kts | 48° |
| 2026-05-08 15:11 | 46.36975 | -79.12970 | 23017 ft | 405 kts | 47° |
| 2026-05-08 15:12 | 46.38733 | -79.09739 | 23836 ft | 410 kts | 46° |
| 2026-05-08 15:12 | 46.40469 | -79.06419 | 24592 ft | 418 kts | 52° |
| 2026-05-08 15:12 | 46.41733 | -79.02560 | 25342 ft | 432 kts | 68° |
| 2026-05-08 15:12 | 46.42289 | -78.98226 | 26039 ft | 444 kts | 83° |
| 2026-05-08 15:13 | 46.42092 | -78.93768 | 26680 ft | 454 kts | 99° |
| 2026-05-08 15:13 | 46.41138 | -78.89347 | 27291 ft | 462 kts | 113° |
| 2026-05-08 15:13 | 46.39728 | -78.85100 | 27883 ft | 468 kts | 117° |
| 2026-05-08 15:13 | 46.38214 | -78.80945 | 28460 ft | 474 kts | 118° |
| 2026-05-08 15:14 | 46.36950 | -78.76515 | 29007 ft | 479 kts | 103° |
| 2026-05-08 15:14 | 46.36504 | -78.71743 | 29530 ft | 479 kts | 86° |
| 2026-05-08 15:14 | 46.36846 | -78.66958 | 29884 ft | 477 kts | 76° |
| 2026-05-08 15:14 | 46.37246 | -78.62163 | 29922 ft | 480 kts | 81° |
| 2026-05-08 15:15 | 46.37163 | -78.57298 | 29905 ft | 487 kts | 94° |
| 2026-05-08 15:15 | 46.36374 | -78.52508 | 29884 ft | 491 kts | 108° |
| 2026-05-08 15:15 | 46.33443 | -78.43640 | 29891 ft | 491 kts | 118° |
| 2026-05-08 15:16 | 46.30182 | -78.34915 | 29881 ft | 492 kts | 118° |
| 2026-05-08 15:16 | 46.27696 | -78.25876 | 29870 ft | 483 kts | 98° |
| 2026-05-08 15:17 | 46.27440 | -78.21077 | 29873 ft | 477 kts | 85° |
| 2026-05-08 15:17 | 46.27659 | -78.16295 | 29879 ft | 474 kts | 80° |
| 2026-05-08 15:17 | 46.28787 | -78.06968 | 29885 ft | 468 kts | 70° |
| 2026-05-08 15:18 | 46.30486 | -77.97928 | 29871 ft | 470 kts | 72° |
| 2026-05-08 15:18 | 46.30845 | -77.93199 | 29869 ft | 478 kts | 86° |
| 2026-05-08 15:18 | 46.30603 | -77.88380 | 29894 ft | 478 kts | 94° |
| 2026-05-08 15:19 | 46.29686 | -77.78887 | 29875 ft | 477 kts | 97° |
| 2026-05-08 15:19 | 46.28524 | -77.69474 | 29878 ft | 477 kts | 98° |
| 2026-05-08 15:20 | 46.27323 | -77.60030 | 29885 ft | 477 kts | 98° |
| 2026-05-08 15:20 | 46.26006 | -77.50595 | 29880 ft | 478 kts | 100° |
| 2026-05-08 15:21 | 46.24613 | -77.41202 | 29873 ft | 478 kts | 100° |
| 2026-05-08 15:21 | 46.23219 | -77.31800 | 29878 ft | 478 kts | 100° |
| 2026-05-08 15:22 | 46.21843 | -77.22391 | 29873 ft | 478 kts | 98° |
| 2026-05-08 15:22 | 46.20930 | -77.12899 | 29891 ft | 476 kts | 94° |
| 2026-05-08 15:23 | 46.20520 | -77.03492 | 29879 ft | 470 kts | 88° |
| 2026-05-08 15:23 | 46.20425 | -76.94057 | 29874 ft | 470 kts | 88° |
| 2026-05-08 15:24 | 46.20353 | -76.84617 | 29873 ft | 470 kts | 88° |
| 2026-05-08 15:24 | 46.20293 | -76.75176 | 29886 ft | 468 kts | 88° |
| 2026-05-08 15:25 | 46.20276 | -76.65855 | 29873 ft | 464 kts | 88° |
| 2026-05-08 15:25 | 46.20272 | -76.56514 | 29874 ft | 464 kts | 88° |
| 2026-05-08 15:26 | 46.20274 | -76.47197 | 29874 ft | 464 kts | 88° |
| 2026-05-08 15:26 | 46.20278 | -76.37946 | 29872 ft | 464 kts | 88° |
| 2026-05-08 15:27 | 46.20293 | -76.28610 | 29871 ft | 461 kts | 88° |
| 2026-05-08 15:27 | 46.20346 | -76.19365 | 29871 ft | 460 kts | 88° |
| 2026-05-08 15:28 | 46.20408 | -76.10130 | 29867 ft | 460 kts | 88° |
| 2026-05-08 15:28 | 46.20474 | -76.00948 | 29865 ft | 460 kts | 88° |
| 2026-05-08 15:29 | 46.20545 | -75.91704 | 29863 ft | 460 kts | 88° |
| 2026-05-08 15:29 | 46.20643 | -75.82485 | 29864 ft | 457 kts | 88° |
| 2026-05-08 15:30 | 46.20738 | -75.74850 | 29861 ft | 457 kts | 88° |
| 2026-05-08 15:30 | 46.20858 | -75.65676 | 29872 ft | 457 kts | 88° |
| 2026-05-08 15:31 | 46.20983 | -75.56480 | 29868 ft | 457 kts | 87° |
| 2026-05-08 15:31 | 46.21111 | -75.47366 | 29870 ft | 455 kts | 88° |
| 2026-05-08 15:32 | 46.21262 | -75.38225 | 29871 ft | 454 kts | 87° |
| 2026-05-08 15:32 | 46.21418 | -75.29108 | 29872 ft | 454 kts | 87° |
| 2026-05-08 15:33 | 46.21581 | -75.19976 | 29893 ft | 454 kts | 87° |
| 2026-05-08 15:33 | 46.21090 | -75.11020 | 29854 ft | 452 kts | 107° |
| 2026-05-08 15:34 | 46.19803 | -75.06908 | 29860 ft | 447 kts | 122° |
| 2026-05-08 15:34 | 46.17927 | -75.03474 | 29696 ft | 426 kts | 134° |
| 2026-05-08 15:34 | 46.16209 | -75.00083 | 29414 ft | 414 kts | 118° |
| 2026-05-08 15:34 | 46.15216 | -74.96232 | 28901 ft | 407 kts | 105° |
| 2026-05-08 15:35 | 46.14511 | -74.92306 | 28305 ft | 403 kts | 105° |
| 2026-05-08 15:35 | 46.13748 | -74.88412 | 27716 ft | 399 kts | 107° |
| 2026-05-08 15:35 | 46.12918 | -74.84608 | 27150 ft | 394 kts | 108° |
| 2026-05-08 15:35 | 46.12068 | -74.80920 | 26610 ft | 390 kts | 109° |
| 2026-05-08 15:36 | 46.11198 | -74.77232 | 26074 ft | 386 kts | 109° |
| 2026-05-08 15:36 | 46.10325 | -74.73584 | 25546 ft | 383 kts | 109° |
| 2026-05-08 15:36 | 46.09456 | -74.69974 | 25055 ft | 378 kts | 109° |
| 2026-05-08 15:36 | 46.08603 | -74.66412 | 24562 ft | 374 kts | 109° |
| 2026-05-08 15:37 | 46.07755 | -74.62896 | 24056 ft | 370 kts | 109° |
| 2026-05-08 15:37 | 46.06921 | -74.59443 | 23583 ft | 367 kts | 110° |
| 2026-05-08 15:37 | 46.06088 | -74.55984 | 23001 ft | 364 kts | 109° |
| 2026-05-08 15:37 | 46.05255 | -74.52547 | 22426 ft | 361 kts | 110° |
| 2026-05-08 15:38 | 46.04162 | -74.49323 | 21842 ft | 357 kts | 127° |
| 2026-05-08 15:38 | 46.02464 | -74.46779 | 21292 ft | 350 kts | 143° |
| 2026-05-08 15:38 | 46.00539 | -74.44653 | 20767 ft | 347 kts | 145° |
| 2026-05-08 15:38 | 45.98619 | -74.42556 | 20237 ft | 345 kts | 144° |
| 2026-05-08 15:39 | 45.96745 | -74.40454 | 19595 ft | 341 kts | 144° |
| 2026-05-08 15:39 | 45.94918 | -74.38364 | 18948 ft | 338 kts | 143° |
| 2026-05-08 15:39 | 45.93094 | -74.36253 | 18312 ft | 335 kts | 143° |
| 2026-05-08 15:39 | 45.91291 | -74.34160 | 17566 ft | 331 kts | 143° |
| 2026-05-08 15:40 | 45.89502 | -74.32077 | 16811 ft | 328 kts | 143° |
| 2026-05-08 15:40 | 45.87733 | -74.30021 | 16069 ft | 325 kts | 143° |
| 2026-05-08 15:40 | 45.85988 | -74.27993 | 15363 ft | 322 kts | 143° |
| 2026-05-08 15:40 | 45.84253 | -74.25976 | 14670 ft | 319 kts | 143° |
| 2026-05-08 15:41 | 45.82533 | -74.23971 | 13991 ft | 317 kts | 143° |
| 2026-05-08 15:41 | 45.80835 | -74.21992 | 13225 ft | 313 kts | 143° |
| 2026-05-08 15:41 | 45.79153 | -74.20035 | 12453 ft | 309 kts | 143° |
| 2026-05-08 15:41 | 45.77511 | -74.18125 | 11721 ft | 305 kts | 143° |
| 2026-05-08 15:42 | 45.75882 | -74.16202 | 11029 ft | 301 kts | 139° |
| 2026-05-08 15:42 | 45.74573 | -74.13891 | 10320 ft | 298 kts | 122° |
| 2026-05-08 15:42 | 45.73575 | -74.11318 | 9683 ft | 294 kts | 119° |
| 2026-05-08 15:42 | 45.72615 | -74.08720 | 9348 ft | 294 kts | 119° |
| 2026-05-08 15:43 | 45.71654 | -74.06136 | 9273 ft | 290 kts | 119° |
| 2026-05-08 15:43 | 45.70725 | -74.03662 | 8716 ft | 286 kts | 120° |
| 2026-05-08 15:43 | 45.69756 | -74.01123 | 8128 ft | 288 kts | 120° |
| 2026-05-08 15:43 | 45.68800 | -73.98633 | 7615 ft | 289 kts | 120° |
| 2026-05-08 15:44 | 45.67836 | -73.96107 | 7130 ft | 288 kts | 120° |
| 2026-05-08 15:44 | 45.66879 | -73.93608 | 6680 ft | 285 kts | 120° |
| 2026-05-08 15:44 | 45.65926 | -73.91127 | 6217 ft | 283 kts | 120° |
| 2026-05-08 15:44 | 45.64980 | -73.88669 | 5735 ft | 282 kts | 121° |
| 2026-05-08 15:45 | 45.64042 | -73.86246 | 5251 ft | 281 kts | 121° |
| 2026-05-08 15:45 | 45.63089 | -73.83782 | 4860 ft | 279 kts | 121° |
| 2026-05-08 15:45 | 45.62162 | -73.81388 | 4779 ft | 279 kts | 121° |
| 2026-05-08 15:45 | 45.61223 | -73.78953 | 4780 ft | 279 kts | 120° |
| 2026-05-08 15:46 | 45.60585 | -73.76410 | 4712 ft | 266 kts | 98° |
| 2026-05-08 15:46 | 45.60750 | -73.73887 | 4556 ft | 250 kts | 66° |
| 2026-05-08 15:46 | 45.61722 | -73.71960 | 4421 ft | 233 kts | 40° |
| 2026-05-08 15:46 | 45.62902 | -73.70432 | 4271 ft | 226 kts | 38° |
| 2026-05-08 15:47 | 45.64070 | -73.68936 | 4098 ft | 225 kts | 38° |
| 2026-05-08 15:47 | 45.65227 | -73.67442 | 3928 ft | 223 kts | 39° |
| 2026-05-08 15:47 | 45.66378 | -73.65947 | 3773 ft | 223 kts | 39° |
| 2026-05-08 15:47 | 45.67518 | -73.64469 | 3639 ft | 228 kts | 39° |
| 2026-05-08 15:48 | 45.69774 | -73.61251 | 3390 ft | 233 kts | 59° |
| 2026-05-08 15:48 | 45.70107 | -73.59007 | 3262 ft | 234 kts | 97° |
| 2026-05-08 15:48 | 45.69490 | -73.56922 | 3133 ft | 228 kts | 135° |
| 2026-05-08 15:49 | 45.68176 | -73.55790 | 3021 ft | 219 kts | 172° |
| 2026-05-08 15:49 | 45.66679 | -73.55526 | 2996 ft | 216 kts | 177° |
| 2026-05-08 15:49 | 45.65219 | -73.55051 | 2986 ft | 220 kts | 166° |
| 2026-05-08 15:49 | 45.63758 | -73.54583 | 2814 ft | 211 kts | 182° |
| 2026-05-08 15:50 | 45.62358 | -73.54929 | 2543 ft | 201 kts | 199° |
| 2026-05-08 15:50 | 45.60987 | -73.54867 | 2311 ft | 201 kts | 161° |
| 2026-05-08 15:50 | 45.59722 | -73.54246 | 2152 ft | 182 kts | 181° |
| 2026-05-08 15:50 | 45.58636 | -73.54650 | 2085 ft | 151 kts | 227° |
| 2026-05-08 15:51 | 45.58174 | -73.55801 | 1914 ft | 120 kts | 251° |
| 2026-05-08 15:51 | 45.57909 | -73.56886 | 1750 ft | 109 kts | 255° |
| 2026-05-08 15:51 | 45.57676 | -73.57899 | 1668 ft | 114 kts | 251° |
| 2026-05-08 15:51 | 45.57298 | -73.58946 | 1864 ft | 126 kts | 242° |
| 2026-05-08 15:52 | 45.56791 | -73.59946 | 1858 ft | 124 kts | 236° |
| 2026-05-08 15:52 | 45.56277 | -73.60927 | 1640 ft | 122 kts | 240° |
| 2026-05-08 15:52 | 45.55841 | -73.61975 | 1542 ft | 123 kts | 245° |
| 2026-05-08 15:52 | 45.55438 | -73.63024 | 1635 ft | 122 kts | 245° |
| 2026-05-08 15:53 | 45.54962 | -73.64043 | 1659 ft | 125 kts | 234° |
| 2026-05-08 15:53 | 45.54378 | -73.64960 | 1691 ft | 124 kts | 231° |
| 2026-05-08 15:53 | 45.53779 | -73.65845 | 1636 ft | 125 kts | 228° |
| 2026-05-08 15:53 | 45.53102 | -73.66610 | 1484 ft | 124 kts | 220° |
| 2026-05-08 15:54 | 45.52392 | -73.67339 | 1305 ft | 126 kts | 226° |
| 2026-05-08 15:54 | 45.51840 | -73.68260 | 1179 ft | 121 kts | 238° |
| 2026-05-08 15:54 | 45.51390 | -73.69250 | 1088 ft | 122 kts | 240° |
| 2026-05-08 15:54 | 45.50869 | -73.70225 | 950 ft | 126 kts | 231° |
| 2026-05-08 15:55 | 45.50211 | -73.71049 | 769 ft | 122 kts | 228° |
| 2026-05-08 15:55 | 45.49000 | -73.72721 | 393 ft | 119 kts | 226° |
| 2026-05-08 15:55 | 45.48385 | -73.73509 | 260 ft | 122 kts | 226° |
| 2026-05-08 15:56 | 45.47774 | -73.74319 | 158 ft | 120 kts | 226° |
| 2026-05-08 15:56 | 45.47153 | -73.75129 | 123 ft | 122 kts | 224° |
| 2026-05-08 15:56 | 45.46663 | -73.75776 | 122 ft | 66 kts | 224° |
| 2026-05-08 15:56 | 45.46460 | -73.76041 | 121 ft | 11 kts | 232° |
| 2026-05-08 15:57 | 45.46454 | -73.76052 | 120 ft | 1 kts | 233° |
| 2026-05-08 15:57 | 45.46439 | -73.76078 | 120 ft | 5 kts | 228° |
| 2026-05-08 15:57 | 45.46402 | -73.76123 | 119 ft | 8 kts | 223° |
| 2026-05-08 15:57 | 45.46351 | -73.76186 | 116 ft | 11 kts | 220° |
| 2026-05-08 15:58 | 45.46274 | -73.76232 | 117 ft | 15 kts | 166° |
| 2026-05-08 15:58 | 45.46214 | -73.76200 | 119 ft | 0 kts | 159° |
| 2026-05-08 15:59 | 45.46203 | -73.76194 | 118 ft | 4 kts | 159° |
| 2026-05-08 16:00 | 45.46170 | -73.76176 | 116 ft | 6 kts | 159° |
| 2026-05-08 16:00 | 45.46126 | -73.76134 | 118 ft | 9 kts | 119° |
| 2026-05-08 16:00 | 45.46121 | -73.76034 | 116 ft | 12 kts | 84° |
| 2026-05-08 16:00 | 45.46126 | -73.75903 | 115 ft | 15 kts | 88° |
| 2026-05-08 16:01 | 45.46129 | -73.75733 | 115 ft | 19 kts | 88° |
| 2026-05-08 16:01 | 45.46138 | -73.75530 | 116 ft | 22 kts | 89° |
| 2026-05-08 16:01 | 45.46142 | -73.75297 | 121 ft | 24 kts | 86° |
| 2026-05-08 16:01 | 45.46147 | -73.75104 | 122 ft | 20 kts | 88° |
| 2026-05-08 16:02 | 45.46151 | -73.74981 | 122 ft | 11 kts | 86° |
| 2026-05-08 16:02 | 45.46126 | -73.74922 | 122 ft | 9 kts | 163° |
| 2026-05-08 16:02 | 45.46079 | -73.74919 | 121 ft | 3 kts | 175° |
| 2026-05-08 16:02 | 45.46073 | -73.74918 | 121 ft | 1 kts | 174° |